Time;durP1;ratioP1;P1;durP2;ratioP2;P2;SDS_P1;SDS_P2;PMS_P1;PMS_P2;Temp;Humidity;BMP_temperature;BMP_pressure;BME280_temperature;BME280_humidity;BME280_pressure;Samples;Min_cycle;Max_cycle;Signal;HPM_P1;HPM_P2
2023/12/06 00:02:01;;;;;;;;;;;;;;;;;;5015081;28;19932;-86
2023/12/06 00:04:30;;;;;;;;;;;;;;;;;;5030993;28;20007;-87
2023/12/06 00:06:55;;;;;;;;;;;;;;;;;;5014339;28;19909;-86
2023/12/06 00:09:30;;;;;;;;;;;;;;;;;;;;;
2023/12/06 00:12:05;;;;;;;;;;;;;;;;;;5024390;28;19909;-86
2023/12/06 00:14:30;;;;;;;;;;;;;;;;;;5014346;28;19941;-87
2023/12/06 00:16:56;;;;;;;;;;;;;;;;;;5022016;28;19916;-86
2023/12/06 00:19:21;;;;;;;;;;;;;;;;;;5014491;28;19909;-86
2023/12/06 00:21:46;;;;;;;;;;;;;;;;;;5014472;28;20311;-86
2023/12/06 00:24:15;;;;;;;;;;;;;;;;;;5013738;28;19916;-86
2023/12/06 00:26:43;;;;;;;;;;;;;;;;;;5013879;28;19961;-86
2023/12/06 00:29:13;;;;;;;;;;;;;;;;;;5031945;28;19914;-87
2023/12/06 00:31:48;;;;;;;;;;;;;;;;;;5022592;28;19932;-86
2023/12/06 00:34:13;;;;;;;;;;;;;;;;;;5014383;28;19909;-87
2023/12/06 00:36:38;;;;;;;;;;;;;;;;;;5028983;28;19917;-88
2023/12/06 00:39:06;;;;;;;;;;;;;;;;;;5015384;28;20356;-87
2023/12/06 00:41:37;;;;;;;;;;;;;;;;;;5018055;28;20366;-88
2023/12/06 00:44:11;;;;;;;;;;;;;;;;;;5026194;28;19909;-88
2023/12/06 00:46:37;;;;;;;;;;;;;;;;;;5035411;28;19909;-88
2023/12/06 00:49:03;;;;;;;;;;;;;;;;;;5016924;28;19916;-89
2023/12/06 00:51:35;;;;;;;;;;;;;;;;;;5025105;28;19913;-88
2023/12/06 00:54:06;;;;;;;;;;;;;;;;;;5031145;28;19909;-87
2023/12/06 00:56:31;;;;;;;;;;;;;;;;;;5033355;28;19909;-88
2023/12/06 00:58:59;;;;;;;;;;;;;;;;;;5025671;28;20287;-88
2023/12/06 01:01:30;;;;;;;;;;;;;;;;;;5025144;28;19971;-88
2023/12/06 01:03:56;;;;;;;;;;;;;;;;;;5025600;28;19932;-88
2023/12/06 01:06:24;;;;;;;;;;;;;;;;;;5017399;28;20379;-88
2023/12/06 01:08:55;;;;;;;;;;;;;;;;;;5033779;28;19932;-88
2023/12/06 01:11:28;;;;;;;;;;;;;;;;;;5016765;28;19913;-88
2023/12/06 01:13:53;;;;;;;;;;;;;;;;;;5017598;28;20364;-88
2023/12/06 01:16:24;;;;;;;;;;;;;;;;;;5021248;28;19987;-88
2023/12/06 01:18:49;;;;;;;;;;;;;;;;;;5025565;28;19913;-88
2023/12/06 01:21:17;;;;;;;;;;;;;;;;;;5025623;28;19909;-88
2023/12/06 01:23:48;;;;;;;;;;;;;;;;;;5025850;28;19959;-88
2023/12/06 01:26:14;;;;;;;;;;;;;;;;;;5030531;28;19948;-89
2023/12/06 01:28:42;;;;;;;;;;;;;;;;;;5033323;28;20303;-88
2023/12/06 01:31:10;;;;;;;;;;;;;;;;;;5025542;28;20363;-87
2023/12/06 01:33:35;;;;;;;;;;;;;;;;;;5017935;28;20391;-88
2023/12/06 01:36:04;;;;;;;;;;;;;;;;;;5025662;28;19909;-89
2023/12/06 01:38:29;;;;;;;;;;;;;;;;;;5016953;28;19952;-88
2023/12/06 01:40:57;;;;;;;;;;;;;;;;;;5025611;28;19995;-88
2023/12/06 01:43:31;;;;;;;;;;;;;;;;;;5024193;28;20387;-88
2023/12/06 01:45:59;;;;;;;;;;;;;;;;;;5011168;28;19910;-89
2023/12/06 01:48:24;;;;;;;;;;;;;;;;;;5026067;28;19913;-89
2023/12/06 01:50:49;;;;;;;;;;;;;;;;;;5025163;28;20311;-88
2023/12/06 01:53:15;;;;;;;;;;;;;;;;;;5025628;28;19916;-89
2023/12/06 01:55:40;;;;;;;;;;;;;;;;;;5015988;28;20307;-89
2023/12/06 01:58:08;;;;;;;;;;;;;;;;;;5016656;28;19958;-89
2023/12/06 02:00:34;;;;;;;;;;;;;;;;;;5030939;28;20380;-89
2023/12/06 02:03:00;;;;;;;;;;;;;;;;;;5018817;28;19963;-89
2023/12/06 02:05:31;;;;;;;;;;;;;;;;;;5020774;28;19909;-89
2023/12/06 02:08:06;;;;;;;;;;;;;;;;;;5016920;28;19916;-88
2023/12/06 02:10:33;;;;;;;;;;;;;;;;;;5016613;28;19921;-89
2023/12/06 02:13:06;;;;;;;;;;;;;;;;;;5032798;28;19990;-88
2023/12/06 02:15:34;;;;;;;;;;;;;;;;;;5031669;28;19914;-90
2023/12/06 02:18:02;;;;;;;;;;;;;;;;;;5025588;28;19990;-88
2023/12/06 02:20:30;;;;;;;;;;;;;;;;;;5025208;28;19916;-90
2023/12/06 02:22:58;;;;;;;;;;;;;;;;;;5034352;28;19955;-91
2023/12/06 02:25:25;;;;;;;;;;;;;;;;;;5025802;28;20375;-89
2023/12/06 02:28:09;;;;;;;;;;;;;;;;;;5025611;28;19917;-90
2023/12/06 02:30:44;;;;;;;;;;;;;;;;;;5025882;28;19913;-89
2023/12/06 02:33:09;;;;;;;;;;;;;;;;;;5027033;28;19916;-89
2023/12/06 02:35:34;;;;;;;;;;;;;;;;;;5026041;28;19909;-89
2023/12/06 02:37:59;;;;;;;;;;;;;;;;;;5031161;28;19910;-88
2023/12/06 02:40:30;;;;;;;;;;;;;;;;;;5034925;28;19913;-89
2023/12/06 02:42:58;;;;;;;;;;;;;;;;;;5027253;28;19909;-89
2023/12/06 02:45:24;;;;;;;;;;;;;;;;;;5029726;28;19909;-89
2023/12/06 02:47:51;;;;;;;;;;;;;;;;;;5021020;28;19909;-89
2023/12/06 02:50:19;;;;;;;;;;;;;;;;;;5015113;28;19999;-89
2023/12/06 02:52:45;;;;;;;;;;;;;;;;;;5035878;28;19921;-89
2023/12/06 02:55:12;;;;;;;;;;;;;;;;;;5036276;28;19916;-89
2023/12/06 02:57:37;;;;;;;;;;;;;;;;;;5035791;28;19910;-89
2023/12/06 03:00:03;;;;;;;;;;;;;;;;;;5018788;28;19936;-89
2023/12/06 03:02:28;;;;;;;;;;;;;;;;;;5025742;28;19919;-89
2023/12/06 03:04:53;;;;;;;;;;;;;;;;;;5034819;28;19975;-91
2023/12/06 03:07:19;;;;;;;;;;;;;;;;;;5034901;28;20483;-89
2023/12/06 03:09:44;;;;;;;;;;;;;;;;;;5034699;28;19967;-89
2023/12/06 03:12:09;;;;;;;;;;;;;;;;;;5027194;28;19935;-88
2023/12/06 03:14:34;;;;;;;;;;;;;;;;;;5025897;28;20290;-89
2023/12/06 03:17:03;;;;;;;;;;;;;;;;;;5031830;28;19952;-89
2023/12/06 03:19:31;;;;;;;;;;;;;;;;;;5033972;28;19983;-89
2023/12/06 03:21:56;;;;;;;;;;;;;;;;;;5014491;28;19910;-89
2023/12/06 03:24:22;;;;;;;;;;;;;;;;;;5034139;28;20398;-88
2023/12/06 03:26:47;;;;;;;;;;;;;;;;;;5026689;28;19965;-89
2023/12/06 03:29:12;;;;;;;;;;;;;;;;;;5030581;28;20430;-88
2023/12/06 03:31:40;;;;;;;;;;;;;;;;;;5034332;28;19913;-89
2023/12/06 03:34:08;;;;;;;;;;;;;;;;;;5025880;28;19944;-89
2023/12/06 03:36:33;;;;;;;;;;;;;;;;;;5026580;28;19909;-89
2023/12/06 03:38:58;;;;;;;;;;;;;;;;;;5031532;28;19914;-88
2023/12/06 03:41:23;;;;;;;;;;;;;;;;;;5035353;28;19909;-89
2023/12/06 03:43:48;;;;;;;;;;;;;;;;;;5034631;28;19996;-89
2023/12/06 03:46:14;;;;;;;;;;;;;;;;;;5026282;28;19909;-88
2023/12/06 03:48:39;;;;;;;;;;;;;;;;;;5030985;28;19921;-88
2023/12/06 03:51:04;;;;;;;;;;;;;;;;;;5026501;28;19913;-89
2023/12/06 03:53:29;;;;;;;;;;;;;;;;;;5025986;28;19916;-89
2023/12/06 03:55:54;;;;;;;;;;;;;;;;;;5034600;28;19910;-89
2023/12/06 03:58:19;;;;;;;;;;;;;;;;;;5031104;28;19910;-89
2023/12/06 04:00:44;;;;;;;;;;;;;;;;;;5033957;28;19932;-89
2023/12/06 04:03:09;;;;;;;;;;;;;;;;;;5025931;28;20707;-89
2023/12/06 04:05:37;;;;;;;;;;;;;;;;;;5018232;28;19909;-88
2023/12/06 04:08:02;;;;;;;;;;;;;;;;;;5025396;28;19913;-89
2023/12/06 04:10:28;;;;;;;;;;;;;;;;;;5025928;28;20393;-88
2023/12/06 04:12:56;;;;;;;;;;;;;;;;;;5032763;28;20392;-88
2023/12/06 04:15:21;;;;;;;;;;;;;;;;;;5037443;28;19909;-91
2023/12/06 04:17:50;;;;;;;;;;;;;;;;;;5038462;28;19915;-88
2023/12/06 04:20:15;;;;;;;;;;;;;;;;;;5029670;28;19976;-88
2023/12/06 04:22:40;;;;;;;;;;;;;;;;;;5029964;28;20342;-88
2023/12/06 04:25:05;;;;;;;;;;;;;;;;;;5021462;28;19909;-88
2023/12/06 04:27:30;;;;;;;;;;;;;;;;;;5035214;28;20344;-88
2023/12/06 04:29:55;;;;;;;;;;;;;;;;;;5029463;28;19947;-88
2023/12/06 04:32:21;;;;;;;;;;;;;;;;;;5029722;28;20043;-88
2023/12/06 04:34:46;;;;;;;;;;;;;;;;;;5029578;28;20438;-88
2023/12/06 04:37:14;;;;;;;;;;;;;;;;;;5034738;28;20147;-88
2023/12/06 04:39:39;;;;;;;;;;;;;;;;;;5037917;28;19909;-88
2023/12/06 04:42:04;;;;;;;;;;;;;;;;;;5029613;28;20364;-88
2023/12/06 04:44:29;;;;;;;;;;;;;;;;;;5026608;28;19931;-88
2023/12/06 04:46:54;;;;;;;;;;;;;;;;;;5030122;28;19917;-88
2023/12/06 04:49:19;;;;;;;;;;;;;;;;;;5029378;28;19910;-88
2023/12/06 04:51:45;;;;;;;;;;;;;;;;;;5029541;28;19924;-88
2023/12/06 04:54:10;;;;;;;;;;;;;;;;;;5034313;28;19909;-88
2023/12/06 04:56:35;;;;;;;;;;;;;;;;;;5035176;28;19916;-87
2023/12/06 04:59:00;;;;;;;;;;;;;;;;;;5021186;28;19969;-88
2023/12/06 05:01:25;;;;;;;;;;;;;;;;;;5034046;28;20000;-88
2023/12/06 05:03:50;;;;;;;;;;;;;;;;;;5038464;28;19976;-88
2023/12/06 05:06:16;;;;;;;;;;;;;;;;;;5030334;28;19915;-88
2023/12/06 05:08:47;;;;;;;;;;;;;;;;;;5039032;28;19909;-88
2023/12/06 05:11:12;;;;;;;;;;;;;;;;;;5034349;28;20308;-88
2023/12/06 05:13:37;;;;;;;;;;;;;;;;;;5037248;28;19913;-88
2023/12/06 05:16:03;;;;;;;;;;;;;;;;;;5028458;28;19910;-88
2023/12/06 05:18:28;;;;;;;;;;;;;;;;;;5028994;28;19920;-88
2023/12/06 05:20:54;;;;;;;;;;;;;;;;;;5032995;28;19910;-88
2023/12/06 05:23:19;;;;;;;;;;;;;;;;;;5036051;28;19910;-88
2023/12/06 05:25:45;;;;;;;;;;;;;;;;;;5034687;28;20043;-87
2023/12/06 05:28:10;;;;;;;;;;;;;;;;;;5026593;28;19924;-88
2023/12/06 05:30:39;;;;;;;;;;;;;;;;;;5026445;28;19913;-87
2023/12/06 05:33:04;;;;;;;;;;;;;;;;;;5034545;28;20071;-87
2023/12/06 05:35:29;;;;;;;;;;;;;;;;;;5031492;28;20392;-87
2023/12/06 05:37:54;;;;;;;;;;;;;;;;;;5025814;28;19916;-88
2023/12/06 05:40:22;;;;;;;;;;;;;;;;;;5026033;28;19909;-87
2023/12/06 05:42:47;;;;;;;;;;;;;;;;;;5025533;28;19909;-87
2023/12/06 05:45:13;;;;;;;;;;;;;;;;;;5030423;28;19910;-87
2023/12/06 05:47:38;;;;;;;;;;;;;;;;;;5033861;28;19979;-87
2023/12/06 05:50:03;;;;;;;;;;;;;;;;;;5025820;28;20287;-87
2023/12/06 05:52:28;;;;;;;;;;;;;;;;;;5027594;28;20356;-88
2023/12/06 05:54:53;;;;;;;;;;;;;;;;;;5028438;28;19960;-87
2023/12/06 05:57:19;;;;;;;;;;;;;;;;;;5032162;28;20442;-87
2023/12/06 05:59:44;;;;;;;;;;;;;;;;;;5032219;28;19960;-87
2023/12/06 06:02:09;;;;;;;;;;;;;;;;;;5026658;28;19920;-87
2023/12/06 06:04:34;;;;;;;;;;;;;;;;;;5029836;28;19924;-87
2023/12/06 06:06:59;;;;;;;;;;;;;;;;;;5024784;28;19909;-87
2023/12/06 06:09:24;;;;;;;;;;;;;;;;;;5024521;28;19916;-87
2023/12/06 06:11:52;;;;;;;;;;;;;;;;;;5014935;28;19909;-87
2023/12/06 06:14:17;;;;;;;;;;;;;;;;;;5024092;28;19909;-87
2023/12/06 06:16:42;;;;;;;;;;;;;;;;;;5023978;28;19909;-88
2023/12/06 06:19:07;;;;;;;;;;;;;;;;;;5032598;28;19916;-87
2023/12/06 06:21:32;;;;;;;;;;;;;;;;;;5016582;28;19953;-88
2023/12/06 06:23:57;;;;;;;;;;;;;;;;;;5024353;28;19909;-87
2023/12/06 06:26:22;;;;;;;;;;;;;;;;;;5024069;28;19915;-87
2023/12/06 06:28:48;;;;;;;;;;;;;;;;;;5023617;28;19917;-87
2023/12/06 06:31:13;;;;;;;;;;;;;;;;;;5027453;28;19924;-87
2023/12/06 06:33:38;;;;;;;;;;;;;;;;;;5030505;28;20004;-86
2023/12/06 06:36:03;;;;;;;;;;;;;;;;;;5023053;28;20008;-86
2023/12/06 06:38:31;;;;;;;;;;;;;;;;;;5023314;28;19921;-87
2023/12/06 06:40:59;;;;;;;;;;;;;;;;;;5015789;28;19947;-87
2023/12/06 06:43:24;;;;;;;;;;;;;;;;;;5028625;28;19957;-87
2023/12/06 06:45:50;;;;;;;;;;;;;;;;;;5032123;28;19998;-88
2023/12/06 06:48:15;;;;;;;;;;;;;;;;;;5023328;28;19909;-87
2023/12/06 06:50:40;;;;;;;;;;;;;;;;;;5023645;28;19921;-87
2023/12/06 06:53:05;;;;;;;;;;;;;;;;;;5031819;28;19914;-86
2023/12/06 06:55:30;;;;;;;;;;;;;;;;;;5029299;28;19909;-87
2023/12/06 06:57:56;;;;;;;;;;;;;;;;;;5022931;28;19992;-87
2023/12/06 07:00:21;;;;;;;;;;;;;;;;;;5023410;28;19913;-86
2023/12/06 07:02:47;;;;;;;;;;;;;;;;;;5015182;28;20375;-86
2023/12/06 07:05:12;;;;;;;;;;;;;;;;;;5023377;28;19910;-87
2023/12/06 07:07:37;;;;;;;;;;;;;;;;;;5023169;28;20375;-86
2023/12/06 07:10:04;;;;;;;;;;;;;;;;;;5028035;28;19913;-86
2023/12/06 07:12:29;;;;;;;;;;;;;;;;;;5029731;28;19920;-86
2023/12/06 07:14:54;;;;;;;;;;;;;;;;;;5023128;28;19913;-86
2023/12/06 07:17:19;;;;;;;;;;;;;;;;;;5023502;28;19917;-86
2023/12/06 07:19:44;;;;;;;;;;;;;;;;;;5032585;28;19940;-86
2023/12/06 07:22:09;;;;;;;;;;;;;;;;;;5015295;28;20383;-87
2023/12/06 07:24:34;;;;;;;;;;;;;;;;;;5029273;28;20403;-87
2023/12/06 07:26:59;;;;;;;;;;;;;;;;;;5023290;28;19924;-86
2023/12/06 07:29:24;;;;;;;;;;;;;;;;;;5032291;28;19920;-87
2023/12/06 07:32:08;;;;;;;;;;;;;;;;;;5032324;28;19917;-86
2023/12/06 07:34:33;;;;;;;;;;;;;;;;;;5032001;28;19909;-87
2023/12/06 07:36:58;;;;;;;;;;;;;;;;;;5022902;28;19924;-86
2023/12/06 07:39:23;;;;;;;;;;;;;;;;;;5032614;28;19915;-86
2023/12/06 07:41:48;;;;;;;;;;;;;;;;;;5031435;28;19932;-86
2023/12/06 07:44:15;;;;;;;;;;;;;;;;;;5023023;28;20425;-87
2023/12/06 07:46:40;;;;;;;;;;;;;;;;;;5022385;28;19960;-86
2023/12/06 07:49:06;;;;;;;;;;;;;;;;;;5031666;28;19909;-86
2023/12/06 07:51:31;;;;;;;;;;;;;;;;;;5030999;28;19913;-86
2023/12/06 07:53:56;;;;;;;;;;;;;;;;;;5032229;28;19909;-86
2023/12/06 07:56:21;;;;;;;;;;;;;;;;;;5032194;28;19952;-87
2023/12/06 07:58:46;;;;;;;;;;;;;;;;;;5022614;28;20295;-85
2023/12/06 08:01:12;;;;;;;;;;;;;;;;;;5030984;28;19909;-86
2023/12/06 08:03:37;;;;;;;;;;;;;;;;;;5021319;28;19944;-86
2023/12/06 08:06:05;;;;;;;;;;;;;;;;;;5014520;28;19948;-87
2023/12/06 08:08:30;;;;;;;;;;;;;;;;;;5025959;28;19909;-85
2023/12/06 08:10:56;;;;;;;;;;;;;;;;;;5030557;28;19913;-86
2023/12/06 08:13:21;;;;;;;;;;;;;;;;;;5032262;28;19909;-85
2023/12/06 08:15:46;;;;;;;;;;;;;;;;;;5029886;28;20004;-85
2023/12/06 08:18:11;;;;;;;;;;;;;;;;;;5031814;28;20292;-86
2023/12/06 08:20:36;;;;;;;;;;;;;;;;;;5014239;28;19991;-85
2023/12/06 08:23:01;;;;;;;;;;;;;;;;;;5030696;28;20003;-86
2023/12/06 08:25:26;;;;;;;;;;;;;;;;;;5030303;28;19909;-85
2023/12/06 08:27:52;;;;;;;;;;;;;;;;;;5013714;28;19937;-85
2023/12/06 08:30:17;;;;;;;;;;;;;;;;;;5030962;28;20371;-86
2023/12/06 08:32:42;;;;;;;;;;;;;;;;;;5019770;28;19917;-85
2023/12/06 08:35:07;;;;;;;;;;;;;;;;;;5014936;28;20008;-87
2023/12/06 08:37:32;;;;;;;;;;;;;;;;;;5021432;28;19939;-86
2023/12/06 08:39:58;;;;;;;;;;;;;;;;;;5010022;28;19913;-86
2023/12/06 08:42:23;;;;;;;;;;;;;;;;;;5031624;28;19913;-85
2023/12/06 08:44:48;;;;;;;;;;;;;;;;;;5034591;28;19909;-85
2023/12/06 08:47:13;;;;;;;;;;;;;;;;;;5033930;28;20382;-85
2023/12/06 08:49:38;;;;;;;;;;;;;;;;;;5032718;28;19982;-86
2023/12/06 08:52:03;;;;;;;;;;;;;;;;;;5016271;28;19913;-85
2023/12/06 08:54:28;;;;;;;;;;;;;;;;;;5007641;28;19910;-85
2023/12/06 08:56:54;;;;;;;;;;;;;;;;;;5013234;28;19924;-85
2023/12/06 08:59:19;;;;;;;;;;;;;;;;;;5030352;28;19916;-86
2023/12/06 09:01:44;;;;;;;;;;;;;;;;;;5035101;28;19949;-87
2023/12/06 09:04:09;;;;;;;;;;;;;;;;;;5033023;28;20004;-87
2023/12/06 09:06:34;;;;;;;;;;;;;;;;;;5024345;28;19909;-85
2023/12/06 09:09:02;;;;;;;;;;;;;;;;;;5016862;28;19909;-86
2023/12/06 09:11:27;;;;;;;;;;;;;;;;;;5016322;28;20024;-85
2023/12/06 09:13:52;;;;;;;;;;;;;;;;;;5017018;28;19964;-86
2023/12/06 09:16:18;;;;;;;;;;;;;;;;;;5033412;28;19982;-85
2023/12/06 09:18:43;;;;;;;;;;;;;;;;;;5034299;28;20379;-86
2023/12/06 09:21:09;;;;;;;;;;;;;;;;;;5033508;28;20424;-85
2023/12/06 09:23:34;;;;;;;;;;;;;;;;;;5017090;28;19972;-86
2023/12/06 09:25:59;;;;;;;;;;;;;;;;;;5016880;28;19913;-86
2023/12/06 09:28:24;;;;;;;;;;;;;;;;;;5016572;28;20007;-86
2023/12/06 09:30:49;;;;;;;;;;;;;;;;;;5034642;28;19924;-87
2023/12/06 09:33:17;;;;;;;;;;;;;;;;;;5035372;28;19916;-89
2023/12/06 09:35:42;;;;;;;;;;;;;;;;;;5024459;28;19909;-84
2023/12/06 09:38:08;;;;;;;;;;;;;;;;;;5025688;28;19932;-86
2023/12/06 09:40:33;;;;;;;;;;;;;;;;;;5025458;28;19963;-85
2023/12/06 09:42:58;;;;;;;;;;;;;;;;;;5034598;28;19917;-86
2023/12/06 09:45:24;;;;;;;;;;;;;;;;;;5034279;28;19909;-84
2023/12/06 09:47:49;;;;;;;;;;;;;;;;;;5015920;28;19913;-83
2023/12/06 09:50:14;;;;;;;;;;;;;;;;;;5034529;28;20008;-84
2023/12/06 09:52:39;;;;;;;;;;;;;;;;;;5034458;28;19948;-84
2023/12/06 09:55:05;;;;;;;;;;;;;;;;;;5034717;28;19936;-85
2023/12/06 09:57:30;;;;;;;;;;;;;;;;;;5016893;28;19909;-84
2023/12/06 09:59:56;;;;;;;;;;;;;;;;;;5016732;28;19909;-85
2023/12/06 10:02:21;;;;;;;;;;;;;;;;;;5016567;28;19916;-85
2023/12/06 10:04:47;;;;;;;;;;;;;;;;;;5034291;28;19916;-85
2023/12/06 10:07:12;;;;;;;;;;;;;;;;;;5016372;28;19916;-85
2023/12/06 10:09:37;;;;;;;;;;;;;;;;;;5033740;28;20383;-85
2023/12/06 10:12:02;;;;;;;;;;;;;;;;;;5033936;28;19964;-85
2023/12/06 10:14:27;;;;;;;;;;;;;;;;;;5034202;28;20338;-85
2023/12/06 10:16:52;;;;;;;;;;;;;;;;;;5034028;28;19910;-85
2023/12/06 10:19:22;;;;;;;;;;;;;;;;;;5020000;28;19956;-85
2023/12/06 10:21:47;;;;;;;;;;;;;;;;;;5034090;28;19913;-85
2023/12/06 10:24:12;;;;;;;;;;;;;;;;;;5016256;28;19916;-85
2023/12/06 10:26:37;;;;;;;;;;;;;;;;;;5015896;28;19917;-85
2023/12/06 10:29:03;;;;;;;;;;;;;;;;;;5015566;28;19921;-85
2023/12/06 10:31:29;;;;;;;;;;;;;;;;;;5033563;28;20005;-84
2023/12/06 10:33:55;;;;;;;;;;;;;;;;;;5016238;28;19970;-85
2023/12/06 10:36:20;;;;;;;;;;;;;;;;;;5033767;28;19909;-85
2023/12/06 10:38:45;;;;;;;;;;;;;;;;;;5015499;28;20419;-85
2023/12/06 10:41:11;;;;;;;;;;;;;;;;;;5033596;28;19909;-85
2023/12/06 10:43:36;;;;;;;;;;;;;;;;;;5033671;28;19909;-85
2023/12/06 10:46:01;;;;;;;;;;;;;;;;;;5015745;28;19927;-85
2023/12/06 10:48:26;;;;;;;;;;;;;;;;;;5033075;28;19947;-85
2023/12/06 10:50:51;;;;;;;;;;;;;;;;;;5033525;28;20003;-85
2023/12/06 10:53:17;;;;;;;;;;;;;;;;;;5028915;28;20372;-86
2023/12/06 10:55:42;;;;;;;;;;;;;;;;;;5031952;28;19909;-85
2023/12/06 10:58:07;;;;;;;;;;;;;;;;;;5015339;28;19909;-85
2023/12/06 11:00:32;;;;;;;;;;;;;;;;;;5033361;28;19909;-85
2023/12/06 11:02:57;;;;;;;;;;;;;;;;;;5015677;28;19909;-85
2023/12/06 11:05:24;;;;;;;;;;;;;;;;;;5033061;28;19910;-85
2023/12/06 11:07:49;;;;;;;;;;;;;;;;;;5015181;28;19952;-85
2023/12/06 11:10:14;;;;;;;;;;;;;;;;;;5033152;28;19971;-85
2023/12/06 11:12:39;;;;;;;;;;;;;;;;;;5033199;28;19971;-85
2023/12/06 11:15:04;;;;;;;;;;;;;;;;;;5033236;28;20395;-85
2023/12/06 11:17:30;;;;;;;;;;;;;;;;;;5015336;28;19909;-85
2023/12/06 11:19:55;;;;;;;;;;;;;;;;;;5033023;28;19909;-85
2023/12/06 11:22:20;;;;;;;;;;;;;;;;;;5015238;28;19916;-85
2023/12/06 11:24:45;;;;;;;;;;;;;;;;;;5033037;28;19913;-85
2023/12/06 11:27:11;;;;;;;;;;;;;;;;;;5032923;28;19913;-85
2023/12/06 11:29:37;;;;;;;;;;;;;;;;;;5023422;28;20020;-85
2023/12/06 11:32:02;;;;;;;;;;;;;;;;;;5023486;28;20004;-85
2023/12/06 11:34:27;;;;;;;;;;;;;;;;;;5033745;28;20048;-85
2023/12/06 11:36:52;;;;;;;;;;;;;;;;;;5033826;28;20414;-85
2023/12/06 11:39:17;;;;;;;;;;;;;;;;;;5033586;28;19909;-85
2023/12/06 11:41:45;;;;;;;;;;;;;;;;;;5033752;28;19909;-85
2023/12/06 11:44:10;;;;;;;;;;;;;;;;;;5015723;28;19916;-85
2023/12/06 11:46:35;;;;;;;;;;;;;;;;;;5033233;28;19909;-85
2023/12/06 11:49:00;;;;;;;;;;;;;;;;;;5032525;28;19909;-86
2023/12/06 11:51:25;;;;;;;;;;;;;;;;;;5015052;28;19920;-85
2023/12/06 11:53:51;;;;;;;;;;;;;;;;;;5007067;28;20383;-85
2023/12/06 11:56:16;;;;;;;;;;;;;;;;;;5015134;28;19917;-84
2023/12/06 11:58:41;;;;;;;;;;;;;;;;;;5030749;28;19910;-86
2023/12/06 12:01:07;;;;;;;;;;;;;;;;;;5016012;28;19916;-85
2023/12/06 12:03:32;;;;;;;;;;;;;;;;;;5015569;28;19967;-85
2023/12/06 12:05:58;;;;;;;;;;;;;;;;;;5033317;28;19956;-85
2023/12/06 12:08:23;;;;;;;;;;;;;;;;;;5018519;28;19909;-85
2023/12/06 12:10:48;;;;;;;;;;;;;;;;;;5028351;28;19917;-86
2023/12/06 12:13:13;;;;;;;;;;;;;;;;;;5014992;28;19917;-88
2023/12/06 12:15:38;;;;;;;;;;;;;;;;;;5031184;28;19913;-86
2023/12/06 12:18:03;;;;;;;;;;;;;;;;;;5032102;28;19920;-85
2023/12/06 12:20:28;;;;;;;;;;;;;;;;;;5031554;28;19964;-86
2023/12/06 12:22:55;;;;;;;;;;;;;;;;;;5032965;28;20059;-87
2023/12/06 12:25:20;;;;;;;;;;;;;;;;;;5014818;28;19909;-86
2023/12/06 12:27:45;;;;;;;;;;;;;;;;;;5014527;28;19921;-89
2023/12/06 12:30:12;;;;;;;;;;;;;;;;;;5015258;28;20461;-86
2023/12/06 12:32:37;;;;;;;;;;;;;;;;;;5033593;28;19916;-87
2023/12/06 12:35:03;;;;;;;;;;;;;;;;;;5034515;28;20278;-86
2023/12/06 12:37:28;;;;;;;;;;;;;;;;;;5036579;28;19913;-88
2023/12/06 12:39:53;;;;;;;;;;;;;;;;;;5013239;28;19909;-86
2023/12/06 12:42:19;;;;;;;;;;;;;;;;;;5037187;28;20324;-86
2023/12/06 12:44:44;;;;;;;;;;;;;;;;;;5018239;28;19909;-86
2023/12/06 12:47:09;;;;;;;;;;;;;;;;;;5035974;28;20004;-85
2023/12/06 12:49:34;;;;;;;;;;;;;;;;;;5035790;28;19941;-86
2023/12/06 12:51:59;;;;;;;;;;;;;;;;;;5036029;28;19913;-85
2023/12/06 12:54:24;;;;;;;;;;;;;;;;;;5035512;28;19909;-86
2023/12/06 12:56:49;;;;;;;;;;;;;;;;;;5035708;28;19910;-86
2023/12/06 12:59:15;;;;;;;;;;;;;;;;;;5017999;28;19916;-88
2023/12/06 13:01:41;;;;;;;;;;;;;;;;;;5018235;28;19916;-86
2023/12/06 13:04:06;;;;;;;;;;;;;;;;;;5018542;28;19913;-86
2023/12/06 13:06:31;;;;;;;;;;;;;;;;;;5018362;28;20363;-88
2023/12/06 13:08:57;;;;;;;;;;;;;;;;;;5036005;28;19949;-85
2023/12/06 13:11:22;;;;;;;;;;;;;;;;;;5018075;28;20368;-85
2023/12/06 13:13:48;;;;;;;;;;;;;;;;;;5018088;28;20371;-86
2023/12/06 13:16:13;;;;;;;;;;;;;;;;;;5035869;28;20003;-86
2023/12/06 13:18:38;;;;;;;;;;;;;;;;;;5016923;28;19921;-87
2023/12/06 13:21:03;;;;;;;;;;;;;;;;;;5035676;28;19916;-86
2023/12/06 13:23:28;;;;;;;;;;;;;;;;;;5017332;28;20011;-86
2023/12/06 13:25:53;;;;;;;;;;;;;;;;;;5035254;28;20004;-86
2023/12/06 13:28:18;;;;;;;;;;;;;;;;;;5017073;28;19952;-86
2023/12/06 13:30:44;;;;;;;;;;;;;;;;;;5035206;28;20299;-86
2023/12/06 13:33:09;;;;;;;;;;;;;;;;;;5016040;28;19916;-86
2023/12/06 13:35:34;;;;;;;;;;;;;;;;;;5032234;28;19958;-86
2023/12/06 13:38:02;;;;;;;;;;;;;;;;;;5016993;28;19963;-87
2023/12/06 13:40:27;;;;;;;;;;;;;;;;;;5017453;28;19952;-86
2023/12/06 13:42:52;;;;;;;;;;;;;;;;;;5035168;28;20023;-86
2023/12/06 13:45:17;;;;;;;;;;;;;;;;;;5016691;28;19909;-85
2023/12/06 13:47:42;;;;;;;;;;;;;;;;;;5017036;28;19909;-86
2023/12/06 13:50:07;;;;;;;;;;;;;;;;;;5035509;28;19913;-87
2023/12/06 13:52:32;;;;;;;;;;;;;;;;;;5034912;28;19913;-86
2023/12/06 13:54:59;;;;;;;;;;;;;;;;;;5035532;28;20248;-86
2023/12/06 13:57:24;;;;;;;;;;;;;;;;;;5018367;28;19909;-86
2023/12/06 13:59:49;;;;;;;;;;;;;;;;;;5018605;28;20392;-86
2023/12/06 14:02:14;;;;;;;;;;;;;;;;;;5017796;28;19916;-87
2023/12/06 14:04:39;;;;;;;;;;;;;;;;;;5016936;28;19932;-86
2023/12/06 14:07:04;;;;;;;;;;;;;;;;;;5017614;28;19909;-86
2023/12/06 14:09:30;;;;;;;;;;;;;;;;;;5034583;28;19909;-88
2023/12/06 14:11:55;;;;;;;;;;;;;;;;;;5034818;28;19937;-86
2023/12/06 14:14:20;;;;;;;;;;;;;;;;;;5032404;28;19916;-86
2023/12/06 14:16:48;;;;;;;;;;;;;;;;;;5009582;28;19964;-85
2023/12/06 14:19:14;;;;;;;;;;;;;;;;;;5017015;28;19909;-86
2023/12/06 14:21:39;;;;;;;;;;;;;;;;;;5033485;28;20004;-88
2023/12/06 14:24:04;;;;;;;;;;;;;;;;;;5033702;28;19948;-86
2023/12/06 14:26:29;;;;;;;;;;;;;;;;;;5023693;28;19913;-85
2023/12/06 14:28:54;;;;;;;;;;;;;;;;;;5020598;28;20425;-86
2023/12/06 14:31:22;;;;;;;;;;;;;;;;;;5026030;28;20012;-87
2023/12/06 14:33:48;;;;;;;;;;;;;;;;;;5027735;28;20351;-86
2023/12/06 14:36:13;;;;;;;;;;;;;;;;;;5036790;28;19909;-86
2023/12/06 14:38:38;;;;;;;;;;;;;;;;;;5031509;28;19973;-85
2023/12/06 14:41:03;;;;;;;;;;;;;;;;;;5017346;28;19910;-86
2023/12/06 14:43:28;;;;;;;;;;;;;;;;;;5034690;28;20364;-86
2023/12/06 14:45:55;;;;;;;;;;;;;;;;;;5016247;28;19959;-86
2023/12/06 14:48:20;;;;;;;;;;;;;;;;;;5023751;28;19909;-86
2023/12/06 14:50:45;;;;;;;;;;;;;;;;;;5017566;28;19921;-86
2023/12/06 14:53:25;;;;;;;;;;;;;;;;;;5090140;27;19950;-83
2023/12/06 14:55:50;;;;;;;;;;;;;;;;;;5088863;28;19912;-83
2023/12/06 14:58:15;;;;;;;;;;;;;;;;;;5088593;28;19922;-83
2023/12/06 15:00:40;;;;;;;;;;;;;;;;;;5092671;28;20435;-83
2023/12/06 15:03:06;;;;;;;;;;;;;;;;;;5089067;28;20046;-83
2023/12/06 15:05:31;;;;;;;;;;;;;;;;;;5088409;28;19916;-83
2023/12/06 15:07:56;;;;;;;;;;;;;;;;;;5088253;28;20259;-83
2023/12/06 15:10:21;;;;;;;;;;;;;;;;;;5083013;28;19940;-83
2023/12/06 15:12:46;;;;;;;;;;;;;;;;;;5088315;28;19924;-83
2023/12/06 15:15:11;;;;;;;;;;;;;;;;;;5082246;28;19999;-83
2023/12/06 15:17:36;;;;;;;;;;;;;;;;;;5084731;28;20392;-83
2023/12/06 15:20:07;;;;;;;;;;;;;;;;;;5081307;28;19913;-84
2023/12/06 15:22:32;;;;;;;;;;;;;;;;;;5079738;28;19909;-83
2023/12/06 15:24:57;;;;;;;;;;;;;;;;;;5088012;28;20003;-83
2023/12/06 15:27:22;;;;;;;;;;;;;;;;;;5089158;28;19988;-83
2023/12/06 15:29:48;;;;;;;;;;;;;;;;;;5088788;28;20007;-83
2023/12/06 15:32:13;;;;;;;;;;;;;;;;;;5087787;28;19913;-83
2023/12/06 15:34:38;;;;;;;;;;;;;;;;;;5088991;28;19912;-83
2023/12/06 15:37:04;;;;;;;;;;;;;;;;;;5088241;28;19912;-83
2023/12/06 15:39:29;;;;;;;;;;;;;;;;;;5089385;28;19908;-83
2023/12/06 15:41:54;;;;;;;;;;;;;;;;;;5086882;28;19909;-83
2023/12/06 15:44:19;;;;;;;;;;;;;;;;;;5082257;28;19916;-83
2023/12/06 15:46:44;;;;;;;;;;;;;;;;;;5087804;28;19908;-83
2023/12/06 15:49:09;;;;;;;;;;;;;;;;;;5088590;28;19909;-83
2023/12/06 15:51:35;;;;;;;;;;;;;;;;;;5092810;28;20331;-81
2023/12/06 15:54:00;;;;;;;;;;;;;;;;;;5108399;28;19914;-81
2023/12/06 15:56:25;;;;;;;;;;;;;;;;;;5107939;28;19909;-82
2023/12/06 15:58:50;;;;;;;;;;;;;;;;;;5107782;28;20273;-81
2023/12/06 16:01:15;;;;;;;;;;;;;;;;;;5102501;28;19923;-82
2023/12/06 16:03:40;;;;;;;;;;;;;;;;;;5100320;28;19915;-81
2023/12/06 16:06:05;;;;;;;;;;;;;;;;;;5093927;28;19931;-82
2023/12/06 16:08:31;;;;;;;;;;;;;;;;;;5094017;28;19915;-82
2023/12/06 16:10:56;;;;;;;;;;;;;;;;;;5090614;28;19909;-82
2023/12/06 16:13:21;;;;;;;;;;;;;;;;;;5093873;28;20327;-82
2023/12/06 16:15:46;;;;;;;;;;;;;;;;;;5094002;28;20028;-82
2023/12/06 16:18:11;;;;;;;;;;;;;;;;;;5085986;28;20483;-81
2023/12/06 16:20:36;;;;;;;;;;;;;;;;;;5094503;28;20033;-82
2023/12/06 16:23:01;;;;;;;;;;;;;;;;;;5093720;28;20266;-82
2023/12/06 16:25:26;;;;;;;;;;;;;;;;;;5093480;28;19982;-82
2023/12/06 16:27:51;;;;;;;;;;;;;;;;;;5093365;28;19908;-81
2023/12/06 16:30:16;;;;;;;;;;;;;;;;;;5093478;28;19908;-82
2023/12/06 16:32:42;;;;;;;;;;;;;;;;;;5093611;28;19912;-81
2023/12/06 16:35:07;;;;;;;;;;;;;;;;;;5093401;28;19973;-82
2023/12/06 16:37:32;;;;;;;;;;;;;;;;;;5094795;28;19908;-82